KFHRKPAE

Guest
Details From KFHR - FRIDAY HARBOR
To KPAE - SNOHOMISH CO
Flight Number -
Tags decoded
Created
Modified
Stats Distance 48 nm / 88 km
Max Altitude 0 ft / 0 m
Waypoints 3
Social Downloads 0
Likes 0
Share VATSIM

Download

Looking for another format? Having issues loading an existing format? Contact us
Advertisement - Login to hide

Notes

Requested: KFHR CVV KPAE

Route

KFHR CVV KPAE

ID Type Via Altitude Latitude Longitude Leg Dist Tot Dist Heading (true) Name
O KFHR APT - 0 ft / 0 m 48.52197˚ -123.02437˚ - 0 nm - FRIDAY HARBOR
CVV VOR - 0 ft / 0 m 48.24469˚ -122.72442˚ 20 nm 20 nm 144° / 144° PENN COVE VOR-DME
O KPAE APT - 0 ft / 0 m 47.90598˚ -122.27914˚ 27 nm 47 nm 139° / 139° SNOHOMISH CO

Altitude Profile

Advertisement - Login to hide

KFHR

Details ICAO KFHR (FRD)
Name FRIDAY HARBOR
Region United States
Timezone America/Los_Angeles (UTC-7.0)
Stats Elevation 113 ft / 34 m (AMSL)
Location 48.521966° -123.024368°
Runways 1
Magnetic Variation 16.007° E

METAR

KFHR 230853Z AUTO 00000KT 10SM CLR 09/07 A2982 RMK AO2 SLP098 T00890072 58004 TSNO

Decode

TAF

Not found

Departure Runways

ID Width Length Bearing (true) Bearing (mag) Surface Threshold Offset Overrun Length
16 75 ft / 23 m 3,402 ft / 1,037 m 177.06° 161.05° Asphalt 0 ft / 0 m 0 ft / 0 m
34 75 ft / 23 m 3,402 ft / 1,037 m 357.06° 341.05° Asphalt 0 ft / 0 m 0 ft / 0 m

KPAE

Details ICAO KPAE (PAE)
Name SNOHOMISH CO
Region United States
Timezone America/Los_Angeles (UTC-7.0)
Stats Elevation 606 ft / 185 m (AMSL)
Location 47.905980° -122.279142°
Runways 3
Magnetic Variation 15.725° E

METAR

KPAE 230853Z AUTO 35006KT 10SM CLR 13/09 A2983 RMK AO2 SLP100 T01330089 58008

Decode

TAF

KPAE 230535Z 2306/2406 36005KT P6SM SKC FM231400 25004KT P6SM SCT008 FM231600 27006KT P6SM SCT250 FM240300 35006KT P6SM SCT100 BKN250

Decode

Destination Runways

ID Width Length Bearing (true) Bearing (mag) Surface Threshold Offset Overrun Length
11 75 ft / 23 m 4,508 ft / 1,374 m 134.22° 118.49° Asphalt 801 ft / 244 m 0 ft / 0 m
16L 75 ft / 23 m 3,000 ft / 915 m 179.56° 163.83° Asphalt 0 ft / 0 m 0 ft / 0 m
16R 151 ft / 46 m 9,404 ft / 2,867 m 179.13° 163.40° Asphalt 400 ft / 122 m 220 ft / 67 m
29 75 ft / 23 m 4,508 ft / 1,374 m 314.23° 298.50° Asphalt 0 ft / 0 m 0 ft / 0 m
34L 151 ft / 46 m 9,404 ft / 2,867 m 359.13° 343.40° Asphalt 0 ft / 0 m 404 ft / 123 m
34R 75 ft / 23 m 3,000 ft / 915 m 359.56° 343.83° Asphalt 0 ft / 0 m 0 ft / 0 m

Approach Navaids

Runway Type Ident Frequency Range Bearing (true) Bearing (mag) Slope Elevation
16R Localiser IPAE 109.30 MHz 18 nm / 33 km 179.13° 163.40° - 565 ft / 172 m (AMSL)
16R Glidescope IPAE 109.30 MHz 10 nm / 19 km 179.13° 163.41° 2.80° 562 ft / 171 m (AMSL)

Popular Alternatives